Time;durP1;ratioP1;P1;durP2;ratioP2;P2;SDS_P1;SDS_P2;PMS_P1;PMS_P2;Temp;Humidity;BMP_temperature;BMP_pressure;BME280_temperature;BME280_humidity;BME280_pressure;Samples;Min_cycle;Max_cycle;Signal;HPM_P1;HPM_P2
2023/06/02 00:02:11;;;;;;;3.72;3.42;;;;;;;;;;5085945;28;20210;-68
2023/06/02 00:04:38;;;;;;;3.80;3.50;;;;;;;;;;5085751;28;20226;-68
2023/06/02 00:07:05;;;;;;;8.32;3.70;;;;;;;;;;5085801;28;20425;-68
2023/06/02 00:09:32;;;;;;;3.50;3.20;;;;;;;;;;5085585;28;20209;-68
2023/06/02 00:12:00;;;;;;;4.53;3.90;;;;;;;;;;5085617;28;20196;-69
2023/06/02 00:14:26;;;;;;;4.97;3.50;;;;;;;;;;5085035;28;20281;-69
2023/06/02 00:16:55;;;;;;;3.47;3.22;;;;;;;;;;5085372;28;20200;-69
2023/06/02 00:19:23;;;;;;;5.93;3.55;;;;;;;;;;5085563;28;20555;-68
2023/06/02 00:21:51;;;;;;;3.83;3.53;;;;;;;;;;5085597;28;20204;-69
2023/06/02 00:24:19;;;;;;;3.63;3.33;;;;;;;;;;5085198;28;20192;-69
2023/06/02 00:26:45;;;;;;;4.30;4.00;;;;;;;;;;5085095;28;20200;-68
2023/06/02 00:29:13;;;;;;;8.65;4.00;;;;;;;;;;5085583;28;20204;-68
2023/06/02 00:31:39;;;;;;;4.05;3.72;;;;;;;;;;5085294;28;20197;-68
2023/06/02 00:34:05;;;;;;;4.00;3.70;;;;;;;;;;5084597;28;20281;-68
2023/06/02 00:36:31;;;;;;;3.83;3.53;;;;;;;;;;5084984;28;20211;-68
2023/06/02 00:38:58;;;;;;;6.55;3.63;;;;;;;;;;5084954;28;20246;-68
2023/06/02 00:41:25;;;;;;;3.50;3.30;;;;;;;;;;5084868;28;20238;-68
2023/06/02 00:43:52;;;;;;;3.60;3.40;;;;;;;;;;5084863;28;20201;-68
2023/06/02 00:46:20;;;;;;;4.22;3.75;;;;;;;;;;5085056;28;20431;-68
2023/06/02 00:48:47;;;;;;;3.58;3.30;;;;;;;;;;5084911;28;20208;-68
2023/06/02 00:51:13;;;;;;;3.67;3.47;;;;;;;;;;5084887;28;20201;-68
2023/06/02 00:53:40;;;;;;;3.40;3.13;;;;;;;;;;5084573;28;20261;-68
2023/06/02 00:56:06;;;;;;;4.45;3.75;;;;;;;;;;5084463;28;20196;-68
2023/06/02 00:58:37;;;;;;;5.28;3.63;;;;;;;;;;5084783;28;20267;-68
2023/06/02 01:01:03;;;;;;;4.32;3.92;;;;;;;;;;5084722;28;20373;-68
2023/06/02 01:03:31;;;;;;;4.07;3.78;;;;;;;;;;5084631;28;20201;-69
2023/06/02 01:06:00;;;;;;;4.03;3.70;;;;;;;;;;5076310;28;20197;-68
2023/06/02 01:08:27;;;;;;;4.07;3.70;;;;;;;;;;5084327;28;20406;-68
2023/06/02 01:10:54;;;;;;;4.18;3.78;;;;;;;;;;5084508;28;20197;-68
2023/06/02 01:13:20;;;;;;;4.32;3.92;;;;;;;;;;5084304;28;20224;-68
2023/06/02 01:15:47;;;;;;;4.28;3.88;;;;;;;;;;5084309;28;20249;-68
2023/06/02 01:18:14;;;;;;;8.00;4.00;;;;;;;;;;5084807;28;20238;-68
2023/06/02 01:20:44;;;;;;;3.53;3.15;;;;;;;;;;5084220;28;20200;-68
2023/06/02 01:23:15;;;;;;;5.40;4.10;;;;;;;;;;5084119;28;20354;-68
2023/06/02 01:25:44;;;;;;;4.43;3.88;;;;;;;;;;5084062;28;20394;-68
2023/06/02 01:28:10;;;;;;;3.65;3.40;;;;;;;;;;5084195;28;20238;-68
2023/06/02 01:30:37;;;;;;;4.40;3.53;;;;;;;;;;5083594;28;20200;-68
2023/06/02 01:33:07;;;;;;;4.47;3.75;;;;;;;;;;5083737;28;20200;-68
2023/06/02 01:35:36;;;;;;;5.03;3.78;;;;;;;;;;5083961;28;20196;-68
2023/06/02 01:38:03;;;;;;;3.45;3.33;;;;;;;;;;5076233;28;20453;-68
2023/06/02 01:40:29;;;;;;;4.72;3.47;;;;;;;;;;5083791;28;20207;-68
2023/06/02 01:42:58;;;;;;;3.78;3.50;;;;;;;;;;5083611;28;20204;-68
2023/06/02 01:45:24;;;;;;;3.75;3.55;;;;;;;;;;5083425;28;20220;-68
2023/06/02 01:47:50;;;;;;;4.78;3.35;;;;;;;;;;5083591;28;20242;-68
2023/06/02 01:50:17;;;;;;;4.05;3.65;;;;;;;;;;5083633;28;20201;-68
2023/06/02 01:52:43;;;;;;;3.72;3.53;;;;;;;;;;5083822;28;20235;-68
2023/06/02 01:55:10;;;;;;;3.92;3.63;;;;;;;;;;5083710;28;20220;-68
2023/06/02 01:57:36;;;;;;;4.13;3.83;;;;;;;;;;5083393;28;20207;-68
2023/06/02 02:00:05;;;;;;;4.97;4.20;;;;;;;;;;5083393;28;20197;-68
2023/06/02 02:02:31;;;;;;;5.63;3.85;;;;;;;;;;5083574;28;20510;-68
2023/06/02 02:04:57;;;;;;;4.68;4.25;;;;;;;;;;5083235;28;20224;-68
2023/06/02 02:07:24;;;;;;;4.97;4.13;;;;;;;;;;5083252;28;20211;-68
2023/06/02 02:09:50;;;;;;;3.63;3.38;;;;;;;;;;5083609;28;20267;-68
2023/06/02 02:12:16;;;;;;;4.65;4.25;;;;;;;;;;5082463;28;20559;-68
2023/06/02 02:14:43;;;;;;;4.70;4.28;;;;;;;;;;5083114;28;20577;-68
2023/06/02 02:17:11;;;;;;;4.22;3.88;;;;;;;;;;5083311;28;20196;-69
2023/06/02 02:19:37;;;;;;;4.10;3.80;;;;;;;;;;5083353;28;20254;-68
2023/06/02 02:22:04;;;;;;;4.60;4.20;;;;;;;;;;5083087;28;20196;-68
2023/06/02 02:24:30;;;;;;;4.38;4.07;;;;;;;;;;5082950;28;20204;-68
2023/06/02 02:26:57;;;;;;;4.47;4.05;;;;;;;;;;5082602;28;20446;-68
2023/06/02 02:29:23;;;;;;;4.53;4.13;;;;;;;;;;5082993;28;20204;-68
2023/06/02 02:31:49;;;;;;;4.30;3.90;;;;;;;;;;5082788;28;20207;-68
2023/06/02 02:34:19;;;;;;;6.47;4.53;;;;;;;;;;5082359;28;20220;-68
2023/06/02 02:36:46;;;;;;;5.25;4.13;;;;;;;;;;5082482;28;20200;-68
2023/06/02 02:39:12;;;;;;;3.97;3.63;;;;;;;;;;5082725;28;20202;-68
2023/06/02 02:41:38;;;;;;;6.00;4.30;;;;;;;;;;5082358;28;20208;-68
2023/06/02 02:44:04;;;;;;;5.60;3.75;;;;;;;;;;5082661;28;20220;-68
2023/06/02 02:46:31;;;;;;;4.55;4.25;;;;;;;;;;5082587;28;20203;-68
2023/06/02 02:48:57;;;;;;;4.95;3.97;;;;;;;;;;5082500;28;20212;-68
2023/06/02 02:51:25;;;;;;;5.57;4.05;;;;;;;;;;5082523;28;20204;-68
2023/06/02 02:53:51;;;;;;;4.28;3.92;;;;;;;;;;5082176;28;20223;-68
2023/06/02 02:56:18;;;;;;;4.30;3.90;;;;;;;;;;5082102;28;20200;-68
2023/06/02 02:58:46;;;;;;;4.43;3.97;;;;;;;;;;5082181;28;20272;-68
2023/06/02 03:01:15;;;;;;;4.15;3.85;;;;;;;;;;5082400;28;20196;-68
2023/06/02 03:03:41;;;;;;;3.85;3.50;;;;;;;;;;5082218;28;20350;-68
2023/06/02 03:06:08;;;;;;;5.00;4.50;;;;;;;;;;5082216;28;20206;-68
2023/06/02 03:08:35;;;;;;;5.35;4.20;;;;;;;;;;5082094;28;20267;-68
2023/06/02 03:11:03;;;;;;;4.40;4.05;;;;;;;;;;5082260;28;20204;-68
2023/06/02 03:13:29;;;;;;;5.90;4.40;;;;;;;;;;5082304;28;20207;-68
2023/06/02 03:15:55;;;;;;;5.63;5.00;;;;;;;;;;5081922;28;20224;-68
2023/06/02 03:18:22;;;;;;;6.50;5.90;;;;;;;;;;5082189;28;20196;-68
2023/06/02 03:20:48;;;;;;;6.45;5.53;;;;;;;;;;5082126;28;20207;-68
2023/06/02 03:23:15;;;;;;;5.90;5.40;;;;;;;;;;5081971;28;20554;-68
2023/06/02 03:25:43;;;;;;;8.95;5.78;;;;;;;;;;5080944;28;20218;-68
2023/06/02 03:28:09;;;;;;;7.28;4.97;;;;;;;;;;5081853;28;20240;-68
2023/06/02 03:30:36;;;;;;;7.22;5.85;;;;;;;;;;5081932;28;20207;-68
2023/06/02 03:33:02;;;;;;;5.82;4.90;;;;;;;;;;5081929;28;20239;-68
2023/06/02 03:35:28;;;;;;;4.95;4.53;;;;;;;;;;5082023;28;20220;-68
2023/06/02 03:37:54;;;;;;;5.82;5.00;;;;;;;;;;5081732;28;20204;-68
2023/06/02 03:40:21;;;;;;;4.47;4.18;;;;;;;;;;5082011;28;20203;-68
2023/06/02 03:42:48;;;;;;;6.82;4.05;;;;;;;;;;5081864;28;20206;-69
2023/06/02 03:45:15;;;;;;;5.35;4.88;;;;;;;;;;5081863;28;20212;-69
2023/06/02 03:47:41;;;;;;;4.57;4.10;;;;;;;;;;5082231;28;20470;-69
2023/06/02 03:50:07;;;;;;;5.97;4.60;;;;;;;;;;5081642;28;20196;-69
2023/06/02 03:52:33;;;;;;;4.85;4.38;;;;;;;;;;5081949;28;20204;-69
2023/06/02 03:55:00;;;;;;;5.13;4.28;;;;;;;;;;5081668;28;20220;-69
2023/06/02 03:57:26;;;;;;;5.97;4.63;;;;;;;;;;5082048;28;20205;-69
2023/06/02 03:59:54;;;;;;;4.50;3.80;;;;;;;;;;5081782;28;20208;-69
2023/06/02 04:02:20;;;;;;;5.53;5.05;;;;;;;;;;5081768;28;20196;-70
2023/06/02 04:04:46;;;;;;;5.13;4.65;;;;;;;;;;5081416;28;20211;-69
2023/06/02 04:07:12;;;;;;;8.10;5.00;;;;;;;;;;5081930;28;20204;-69
2023/06/02 04:09:39;;;;;;;4.45;4.03;;;;;;;;;;5081792;28;20220;-69
2023/06/02 04:12:06;;;;;;;5.10;4.70;;;;;;;;;;5081566;28;20196;-69
2023/06/02 04:14:33;;;;;;;4.80;4.35;;;;;;;;;;5081122;28;20220;-69
2023/06/02 04:17:00;;;;;;;6.70;4.82;;;;;;;;;;5081607;28;20442;-69
2023/06/02 04:19:26;;;;;;;5.45;4.95;;;;;;;;;;5081662;28;20242;-69
2023/06/02 04:21:53;;;;;;;5.18;4.70;;;;;;;;;;5081804;28;20204;-69
2023/06/02 04:24:19;;;;;;;7.25;4.68;;;;;;;;;;5081348;28;20197;-69
2023/06/02 04:26:45;;;;;;;6.88;4.80;;;;;;;;;;5081277;28;20205;-69
2023/06/02 04:29:12;;;;;;;5.20;4.70;;;;;;;;;;5081503;28;20383;-69
2023/06/02 04:31:39;;;;;;;4.95;4.55;;;;;;;;;;5081400;28;20206;-69
2023/06/02 04:34:07;;;;;;;5.25;4.75;;;;;;;;;;5080842;28;20242;-69
2023/06/02 04:36:34;;;;;;;5.35;4.85;;;;;;;;;;5083848;28;20373;-69
2023/06/02 04:39:01;;;;;;;5.15;4.65;;;;;;;;;;5084928;28;20207;-69
2023/06/02 04:41:27;;;;;;;5.15;4.65;;;;;;;;;;5085170;28;20200;-69
2023/06/02 04:43:53;;;;;;;4.85;4.45;;;;;;;;;;5084949;28;20211;-69
2023/06/02 04:46:19;;;;;;;7.18;6.10;;;;;;;;;;5084986;28;20197;-69
2023/06/02 04:48:47;;;;;;;5.93;5.43;;;;;;;;;;5084694;28;20212;-69
2023/06/02 04:51:14;;;;;;;5.90;5.30;;;;;;;;;;5084627;28;20238;-69
2023/06/02 04:53:41;;;;;;;8.75;4.80;;;;;;;;;;5084797;28;20208;-69
2023/06/02 04:56:07;;;;;;;5.72;5.05;;;;;;;;;;5084404;28;20266;-69
2023/06/02 04:58:33;;;;;;;6.13;4.88;;;;;;;;;;5084594;28;20200;-69
2023/06/02 05:01:01;;;;;;;7.45;5.50;;;;;;;;;;5084318;28;20201;-69
2023/06/02 05:03:27;;;;;;;6.30;5.18;;;;;;;;;;5084525;28;20204;-69
2023/06/02 05:05:53;;;;;;;6.93;5.78;;;;;;;;;;5084444;28;20203;-69
2023/06/02 05:08:21;;;;;;;6.97;5.10;;;;;;;;;;5084384;28;20208;-69
2023/06/02 05:10:48;;;;;;;7.88;5.65;;;;;;;;;;5084475;28;20391;-69
2023/06/02 05:13:14;;;;;;;7.70;5.80;;;;;;;;;;5084388;28;20526;-70
2023/06/02 05:15:40;;;;;;;6.10;5.50;;;;;;;;;;5084109;28;20231;-69
2023/06/02 05:18:07;;;;;;;8.40;5.38;;;;;;;;;;5084377;28;20218;-69
2023/06/02 05:20:33;;;;;;;6.53;5.80;;;;;;;;;;5084449;28;20201;-69
2023/06/02 05:22:59;;;;;;;7.15;6.45;;;;;;;;;;5084162;28;20204;-69
2023/06/02 05:25:27;;;;;;;8.52;6.13;;;;;;;;;;5084192;28;20508;-69
2023/06/02 05:27:53;;;;;;;9.73;6.38;;;;;;;;;;5083933;28;20224;-69
2023/06/02 05:30:19;;;;;;;9.60;6.57;;;;;;;;;;5083987;28;20196;-69
2023/06/02 05:32:46;;;;;;;7.65;6.28;;;;;;;;;;5084246;28;20204;-69
2023/06/02 05:35:12;;;;;;;8.40;6.25;;;;;;;;;;5083894;28;20257;-69
2023/06/02 05:37:38;;;;;;;10.43;7.25;;;;;;;;;;5083877;28;20207;-69
2023/06/02 05:40:05;;;;;;;11.38;7.05;;;;;;;;;;5083951;28;20547;-69
2023/06/02 05:42:32;;;;;;;6.53;5.93;;;;;;;;;;5083917;28;20398;-69
2023/06/02 05:45:00;;;;;;;7.45;6.50;;;;;;;;;;5083316;28;20223;-69
2023/06/02 05:47:26;;;;;;;8.60;6.28;;;;;;;;;;5082978;28;20203;-69
2023/06/02 05:49:53;;;;;;;8.32;6.40;;;;;;;;;;5083597;28;20213;-69
2023/06/02 05:52:19;;;;;;;8.75;6.20;;;;;;;;;;5083985;28;20212;-69
2023/06/02 05:54:45;;;;;;;8.82;5.97;;;;;;;;;;5083419;28;20674;-69
2023/06/02 05:57:12;;;;;;;7.38;6.50;;;;;;;;;;5083503;28;20531;-69
2023/06/02 05:59:40;;;;;;;12.63;6.75;;;;;;;;;;5083354;28;20435;-69
2023/06/02 06:02:07;;;;;;;10.75;6.65;;;;;;;;;;5083563;28;20403;-69
2023/06/02 06:04:33;;;;;;;7.93;6.35;;;;;;;;;;5083782;28;20211;-61
2023/06/02 06:06:59;;;;;;;10.77;6.35;;;;;;;;;;5076587;28;20208;-60
2023/06/02 06:09:26;;;;;;;8.85;6.72;;;;;;;;;;5079664;28;20216;-60
2023/06/02 06:11:52;;;;;;;9.20;6.63;;;;;;;;;;5080279;28;20216;-60
2023/06/02 06:14:18;;;;;;;8.80;6.78;;;;;;;;;;5078331;28;20216;-59
2023/06/02 06:16:46;;;;;;;11.05;7.40;;;;;;;;;;5078224;28;20208;-60
2023/06/02 06:19:12;;;;;;;10.13;7.45;;;;;;;;;;5077403;28;20543;-61
2023/06/02 06:21:38;;;;;;;8.30;7.50;;;;;;;;;;5074435;28;20212;-60
2023/06/02 06:24:05;;;;;;;21.88;12.70;;;;;;;;;;5073854;28;20467;-60
2023/06/02 06:26:32;;;;;;;11.07;7.47;;;;;;;;;;5071575;28;20213;-60
2023/06/02 06:28:58;;;;;;;11.35;6.97;;;;;;;;;;5074499;28;20232;-60
2023/06/02 06:31:25;;;;;;;8.13;7.32;;;;;;;;;;5076915;28;20544;-59
2023/06/02 06:33:52;;;;;;;8.05;6.90;;;;;;;;;;5076328;28;20212;-60
2023/06/02 06:36:19;;;;;;;11.10;6.80;;;;;;;;;;5077235;28;20208;-60
2023/06/02 06:38:45;;;;;;;10.60;6.93;;;;;;;;;;5076851;28;20438;-60
2023/06/02 06:41:11;;;;;;;6.80;6.20;;;;;;;;;;5076868;28;20392;-60
2023/06/02 06:43:39;;;;;;;10.45;6.85;;;;;;;;;;5076510;28;20220;-60
2023/06/02 06:46:05;;;;;;;9.05;7.00;;;;;;;;;;5075233;28;20217;-61
2023/06/02 06:48:31;;;;;;;8.15;6.22;;;;;;;;;;5077015;28;20521;-59
2023/06/02 06:50:59;;;;;;;11.13;7.65;;;;;;;;;;5075535;28;20219;-60
2023/06/02 06:53:27;;;;;;;7.72;6.75;;;;;;;;;;5075861;28;20231;-60
2023/06/02 06:55:53;;;;;;;7.03;6.32;;;;;;;;;;5073384;28;20228;-60
2023/06/02 06:58:20;;;;;;;10.88;6.78;;;;;;;;;;5076173;28;20255;-60
2023/06/02 07:00:46;;;;;;;7.68;6.97;;;;;;;;;;5077106;28;20212;-60
2023/06/02 07:03:12;;;;;;;7.55;6.82;;;;;;;;;;5076531;28;20242;-60
2023/06/02 07:05:38;;;;;;;7.70;7.03;;;;;;;;;;5075799;28;20224;-60
2023/06/02 07:08:06;;;;;;;9.50;7.05;;;;;;;;;;5075470;28;20208;-60
2023/06/02 07:10:32;;;;;;;10.10;7.45;;;;;;;;;;5075676;28;20605;-60
2023/06/02 07:12:59;;;;;;;9.25;7.43;;;;;;;;;;5075395;28;20220;-60
2023/06/02 07:15:25;;;;;;;11.65;6.63;;;;;;;;;;5076413;28;20224;-59
2023/06/02 07:17:51;;;;;;;9.85;7.43;;;;;;;;;;5076536;28;20212;-60
2023/06/02 07:20:17;;;;;;;8.18;6.47;;;;;;;;;;5076471;28;20247;-60
2023/06/02 07:22:44;;;;;;;9.70;6.82;;;;;;;;;;5076748;28;20446;-60
2023/06/02 07:25:11;;;;;;;10.45;7.45;;;;;;;;;;5077141;28;20368;-60
2023/06/02 07:27:38;;;;;;;7.72;7.03;;;;;;;;;;5077603;28;20228;-60
2023/06/02 07:30:05;;;;;;;9.52;7.43;;;;;;;;;;5076128;28;20455;-60
2023/06/02 07:32:31;;;;;;;8.63;7.50;;;;;;;;;;5075583;28;20212;-60
2023/06/02 07:34:58;;;;;;;8.65;7.13;;;;;;;;;;5076053;28;20204;-60
2023/06/02 07:37:24;;;;;;;11.63;7.03;;;;;;;;;;5076058;28;20520;-60
2023/06/02 07:39:50;;;;;;;11.35;7.55;;;;;;;;;;5075631;28;20447;-60
2023/06/02 07:42:19;;;;;;;10.50;7.13;;;;;;;;;;5076874;28;20215;-60
2023/06/02 07:44:45;;;;;;;11.90;7.97;;;;;;;;;;5077001;28;20236;-59
2023/06/02 07:47:11;;;;;;;8.00;7.28;;;;;;;;;;5077095;28;20208;-58
2023/06/02 07:49:38;;;;;;;8.38;7.38;;;;;;;;;;5077184;28;20451;-60
2023/06/02 07:52:04;;;;;;;9.65;7.68;;;;;;;;;;5077107;28;20216;-60
2023/06/02 07:54:30;;;;;;;9.30;6.90;;;;;;;;;;5078512;28;20216;-60
2023/06/02 07:56:57;;;;;;;12.90;7.78;;;;;;;;;;5077340;28;20227;-60
2023/06/02 07:59:24;;;;;;;11.00;7.43;;;;;;;;;;5077875;28;20476;-60
2023/06/02 08:01:51;;;;;;;11.90;7.15;;;;;;;;;;5077493;28;20371;-60
2023/06/02 08:04:17;;;;;;;15.68;7.35;;;;;;;;;;5077803;28;20209;-61
2023/06/02 08:06:43;;;;;;;10.10;7.53;;;;;;;;;;5076162;28;20220;-60
2023/06/02 08:09:10;;;;;;;8.50;7.45;;;;;;;;;;5076827;28;20222;-60
2023/06/02 08:11:36;;;;;;;11.40;7.88;;;;;;;;;;5078059;28;20219;-60
2023/06/02 08:14:02;;;;;;;12.82;7.63;;;;;;;;;;5081204;28;20219;-61
2023/06/02 08:16:30;;;;;;;9.10;6.97;;;;;;;;;;5080076;28;20231;-60
2023/06/02 08:18:56;;;;;;;8.95;7.18;;;;;;;;;;5077299;28;20219;-60
2023/06/02 08:21:23;;;;;;;12.85;7.55;;;;;;;;;;5079226;28;20232;-60
2023/06/02 08:23:49;;;;;;;8.23;6.85;;;;;;;;;;5079197;28;20216;-60
2023/06/02 08:26:15;;;;;;;10.75;7.20;;;;;;;;;;5078279;28;20212;-60
2023/06/02 08:28:42;;;;;;;11.77;7.43;;;;;;;;;;5079386;28;20239;-60
2023/06/02 08:31:09;;;;;;;11.75;7.50;;;;;;;;;;5079547;28;20453;-60
2023/06/02 08:33:36;;;;;;;11.18;6.57;;;;;;;;;;5078915;28;20424;-60
2023/06/02 08:36:06;;;;;;;7.80;6.75;;;;;;;;;;5080626;28;20296;-60
2023/06/02 08:38:32;;;;;;;13.43;6.82;;;;;;;;;;5079738;28;20242;-60
2023/06/02 08:40:58;;;;;;;7.93;7.10;;;;;;;;;;5078442;28;20587;-60
2023/06/02 08:43:25;;;;;;;10.30;7.40;;;;;;;;;;5080153;28;20216;-59
2023/06/02 08:45:51;;;;;;;11.68;7.40;;;;;;;;;;5078824;28;20208;-58
2023/06/02 08:48:18;;;;;;;9.43;7.05;;;;;;;;;;5078283;28;20208;-59
2023/06/02 08:50:47;;;;;;;10.38;6.43;;;;;;;;;;5078652;28;20212;-60
2023/06/02 08:53:14;;;;;;;8.32;6.47;;;;;;;;;;5079037;28;20546;-61
2023/06/02 08:55:41;;;;;;;10.93;6.53;;;;;;;;;;5077704;28;20235;-61
2023/06/02 08:58:09;;;;;;;14.00;7.38;;;;;;;;;;5077495;28;20511;-61
2023/06/02 09:00:35;;;;;;;8.27;6.82;;;;;;;;;;5078349;28;20212;-61
2023/06/02 09:03:01;;;;;;;14.85;8.45;;;;;;;;;;5077729;28;20567;-61
2023/06/02 09:05:28;;;;;;;11.93;6.47;;;;;;;;;;5077956;28;20230;-61
2023/06/02 09:08:06;;;;;;;8.45;6.13;;;;;;;;;;5078229;28;20440;-61
2023/06/02 09:10:33;;;;;;;9.85;6.68;;;;;;;;;;5070896;28;20216;-61
2023/06/02 09:12:59;;;;;;;11.45;6.75;;;;;;;;;;5078217;28;20212;-61
2023/06/02 09:15:26;;;;;;;9.85;6.03;;;;;;;;;;5069996;28;20204;-61
2023/06/02 09:17:52;;;;;;;9.93;6.10;;;;;;;;;;5078250;28;20372;-62
2023/06/02 09:20:18;;;;;;;12.25;6.45;;;;;;;;;;5078164;28;20508;-60
2023/06/02 09:22:55;;;;;;;11.25;5.90;;;;;;;;;;5077216;28;20227;-60
2023/06/02 09:25:23;;;;;;;7.88;6.40;;;;;;;;;;5077840;28;20215;-61
2023/06/02 09:27:53;;;;;;;7.38;6.60;;;;;;;;;;5078560;28;20236;-61
2023/06/02 09:30:19;;;;;;;8.45;6.82;;;;;;;;;;5078804;28;20224;-61
2023/06/02 09:32:51;;;;;;;10.75;6.32;;;;;;;;;;5078929;28;20212;-60
2023/06/02 09:35:32;;;;;;;9.02;6.28;;;;;;;;;;5078419;28;20217;-61
2023/06/02 09:37:58;;;;;;;5.65;5.25;;;;;;;;;;5078693;28;20215;-60
2023/06/02 09:40:29;;;;;;;6.97;5.40;;;;;;;;;;5077859;28;20213;-61
2023/06/02 09:42:55;;;;;;;6.20;5.60;;;;;;;;;;5078167;28;20442;-61
2023/06/02 09:45:22;;;;;;;7.63;5.82;;;;;;;;;;5077482;28;20217;-60
2023/06/02 09:47:48;;;;;;;8.88;5.68;;;;;;;;;;5077563;28;20208;-60
2023/06/02 09:50:29;;;;;;;7.45;6.07;;;;;;;;;;5076749;28;20528;-60
2023/06/02 09:53:06;;;;;;;6.40;5.90;;;;;;;;;;5077821;28;20219;-60
2023/06/02 09:55:35;;;;;;;7.57;6.00;;;;;;;;;;5073452;28;20254;-60
2023/06/02 09:58:01;;;;;;;10.63;6.65;;;;;;;;;;5076846;28;20532;-60
2023/06/02 10:00:28;;;;;;;7.57;6.45;;;;;;;;;;5077117;28;20567;-61
2023/06/02 10:02:54;;;;;;;5.90;5.45;;;;;;;;;;5077041;28;20212;-61
2023/06/02 10:05:22;;;;;;;9.27;6.00;;;;;;;;;;5076783;28;20548;-61
2023/06/02 10:07:53;;;;;;;7.75;5.32;;;;;;;;;;5076811;28;20543;-61
2023/06/02 10:10:23;;;;;;;5.65;4.90;;;;;;;;;;5077064;28;20527;-61
2023/06/02 10:13:07;;;;;;;6.75;5.55;;;;;;;;;;5076451;28;20212;-61
2023/06/02 10:15:46;;;;;;;6.50;5.20;;;;;;;;;;5067751;28;20208;-60
2023/06/02 10:18:29;;;;;;;6.07;4.78;;;;;;;;;;5077504;28;20246;-60
2023/06/02 10:21:01;;;;;;;4.93;4.40;;;;;;;;;;5077287;28;20212;-60
2023/06/02 10:23:34;;;;;;;6.63;5.53;;;;;;;;;;5073689;28;20593;-61
2023/06/02 10:26:07;;;;;;;7.07;5.05;;;;;;;;;;5077597;28;20211;-60
2023/06/02 10:28:34;;;;;;;10.73;5.28;;;;;;;;;;5077080;28;20478;-61
2023/06/02 10:31:08;;;;;;;5.28;4.80;;;;;;;;;;5077854;28;20214;-61
2023/06/02 10:33:44;;;;;;;5.25;4.85;;;;;;;;;;5073043;28;20507;-61
2023/06/02 10:36:12;;;;;;;5.53;5.00;;;;;;;;;;5077042;28;20219;-62
2023/06/02 10:38:38;;;;;;;4.55;4.25;;;;;;;;;;5076960;28;20212;-60
2023/06/02 10:41:05;;;;;;;5.32;4.82;;;;;;;;;;5077043;28;20212;-61
2023/06/02 10:43:32;;;;;;;5.75;4.88;;;;;;;;;;5077752;28;20212;-61
2023/06/02 10:46:23;;;;;;;5.32;4.78;;;;;;;;;;5077658;28;20215;-61
2023/06/02 10:48:50;;;;;;;7.32;4.65;;;;;;;;;;5058651;28;20531;-61
2023/06/02 10:51:17;;;;;;;6.18;4.80;;;;;;;;;;5077030;28;20389;-61
2023/06/02 10:54:02;;;;;;;6.20;4.80;;;;;;;;;;5076862;28;20212;-61
2023/06/02 10:56:41;;;;;;;4.90;4.60;;;;;;;;;;5076673;28;20231;-61
2023/06/02 10:59:08;;;;;;;5.85;4.60;;;;;;;;;;5076504;28;20218;-61
2023/06/02 11:01:44;;;;;;;5.28;4.93;;;;;;;;;;5076243;28;20211;-61
2023/06/02 11:04:28;;;;;;;5.63;4.40;;;;;;;;;;5075847;28;20211;-60
2023/06/02 11:07:15;;;;;;;5.38;4.88;;;;;;;;;;5076821;28;20254;-61
2023/06/02 11:09:43;;;;;;;4.53;4.10;;;;;;;;;;5069885;28;20210;-61
2023/06/02 11:12:10;;;;;;;6.28;4.70;;;;;;;;;;5075657;28;20232;-61
2023/06/02 11:14:55;;;;;;;10.00;4.63;;;;;;;;;;5076257;28;20219;-60
2023/06/02 11:17:31;;;;;;;6.07;5.07;;;;;;;;;;5076644;28;20309;-60
2023/06/02 11:19:59;;;;;;;5.20;4.70;;;;;;;;;;5076594;28;20207;-61
2023/06/02 11:22:25;;;;;;;4.95;3.97;;;;;;;;;;5076528;28;20235;-60
2023/06/02 11:24:52;;;;;;;4.68;4.30;;;;;;;;;;5076302;28;20211;-59
2023/06/02 11:27:18;;;;;;;4.38;4.00;;;;;;;;;;5075283;28;20230;-60
2023/06/02 11:29:45;;;;;;;8.60;4.50;;;;;;;;;;5077021;28;20207;-60
2023/06/02 11:32:11;;;;;;;4.93;4.53;;;;;;;;;;5075969;28;20212;-59
2023/06/02 11:34:38;;;;;;;5.95;4.28;;;;;;;;;;5076072;28;20212;-59
2023/06/02 11:37:16;;;;;;;4.93;4.53;;;;;;;;;;5076001;28;20427;-59
2023/06/02 11:39:53;;;;;;;7.10;4.68;;;;;;;;;;5070489;28;20569;-60
2023/06/02 11:42:19;;;;;;;6.53;4.40;;;;;;;;;;5076405;28;20219;-59
2023/06/02 11:44:49;;;;;;;4.53;4.10;;;;;;;;;;5075778;28;20464;-59
2023/06/02 11:47:17;;;;;;;4.32;3.92;;;;;;;;;;5075901;28;20204;-59
2023/06/02 11:49:44;;;;;;;4.63;4.25;;;;;;;;;;5076594;28;20214;-60
2023/06/02 11:52:10;;;;;;;4.80;4.40;;;;;;;;;;5076769;28;20576;-60
2023/06/02 11:54:50;;;;;;;4.80;4.20;;;;;;;;;;5076230;28;20273;-60
2023/06/02 11:57:25;;;;;;;4.60;4.30;;;;;;;;;;5075690;28;20575;-59
2023/06/02 12:00:04;;;;;;;4.22;3.92;;;;;;;;;;5074970;28;20279;-59
2023/06/02 12:02:31;;;;;;;5.15;4.10;;;;;;;;;;5076335;28;20214;-60
2023/06/02 12:04:57;;;;;;;4.40;4.00;;;;;;;;;;5075426;28;20249;-59
2023/06/02 12:07:27;;;;;;;4.43;4.13;;;;;;;;;;5075356;28;20208;-59
2023/06/02 12:09:55;;;;;;;4.75;4.13;;;;;;;;;;5076558;28;20538;-59
2023/06/02 12:12:21;;;;;;;7.30;4.25;;;;;;;;;;5075603;28;20265;-59
2023/06/02 12:14:48;;;;;;;4.03;3.72;;;;;;;;;;5075439;28;20420;-60
2023/06/02 12:17:14;;;;;;;4.75;4.22;;;;;;;;;;5075168;28;20212;-59
2023/06/02 12:19:40;;;;;;;6.38;3.90;;;;;;;;;;5075708;28;20208;-60
2023/06/02 12:22:08;;;;;;;5.57;4.47;;;;;;;;;;5075727;28;20214;-60
2023/06/02 12:24:37;;;;;;;8.10;4.32;;;;;;;;;;5074951;28;20258;-60
2023/06/02 12:27:06;;;;;;;4.07;3.80;;;;;;;;;;5074977;28;20204;-60
2023/06/02 12:29:33;;;;;;;4.03;3.72;;;;;;;;;;5075859;28;20554;-60
2023/06/02 12:32:00;;;;;;;9.05;3.90;;;;;;;;;;5074654;28;20451;-59
2023/06/02 12:34:27;;;;;;;7.15;4.47;;;;;;;;;;5075148;28;20211;-59
2023/06/02 12:36:53;;;;;;;4.28;3.88;;;;;;;;;;5075578;28;20224;-60
2023/06/02 12:39:20;;;;;;;3.95;3.60;;;;;;;;;;5075754;28;20208;-60
2023/06/02 12:41:46;;;;;;;3.90;3.60;;;;;;;;;;5074831;28;20214;-59
2023/06/02 12:44:14;;;;;;;4.93;4.00;;;;;;;;;;5075105;28;20212;-59
2023/06/02 12:46:41;;;;;;;10.63;3.92;;;;;;;;;;5075670;28;20208;-59
2023/06/02 12:49:09;;;;;;;4.13;3.72;;;;;;;;;;5075449;28;20500;-60
2023/06/02 12:51:35;;;;;;;4.72;3.58;;;;;;;;;;5075228;28;20223;-59
2023/06/02 12:54:01;;;;;;;8.38;3.80;;;;;;;;;;5075642;28;20220;-59
2023/06/02 12:56:28;;;;;;;3.53;3.22;;;;;;;;;;5075769;28;20212;-60
2023/06/02 12:58:55;;;;;;;5.70;3.35;;;;;;;;;;5078558;28;20291;-60
2023/06/02 13:01:23;;;;;;;3.58;3.33;;;;;;;;;;5079460;28;20199;-59
2023/06/02 13:03:49;;;;;;;5.07;3.90;;;;;;;;;;5079327;28;20447;-60
2023/06/02 13:06:17;;;;;;;4.32;3.80;;;;;;;;;;5078942;28;20219;-60
2023/06/02 13:08:43;;;;;;;3.22;3.13;;;;;;;;;;5079369;28;20564;-60
2023/06/02 13:11:10;;;;;;;3.88;3.50;;;;;;;;;;5079015;28;20212;-60
2023/06/02 13:13:36;;;;;;;3.53;3.30;;;;;;;;;;5078915;28;20535;-60
2023/06/02 13:16:03;;;;;;;3.45;3.25;;;;;;;;;;5079653;28;20452;-60
2023/06/02 13:18:31;;;;;;;3.63;3.33;;;;;;;;;;5077636;28;20231;-59
2023/06/02 13:20:57;;;;;;;3.58;3.38;;;;;;;;;;5078243;28;20537;-59
2023/06/02 13:23:23;;;;;;;5.30;3.40;;;;;;;;;;5077815;28;20279;-59
2023/06/02 13:25:50;;;;;;;3.25;3.05;;;;;;;;;;5077805;28;20231;-59
2023/06/02 13:28:16;;;;;;;7.13;3.67;;;;;;;;;;5077966;28;20245;-59
2023/06/02 13:30:42;;;;;;;3.13;2.70;;;;;;;;;;5077251;28;20437;-59
2023/06/02 13:33:09;;;;;;;6.30;3.35;;;;;;;;;;5079182;28;20200;-59
2023/06/02 13:35:37;;;;;;;4.30;3.40;;;;;;;;;;5074180;28;20249;-59
2023/06/02 13:38:04;;;;;;;3.47;2.95;;;;;;;;;;5082121;28;20223;-59
2023/06/02 13:40:30;;;;;;;3.92;3.55;;;;;;;;;;5065666;28;20220;-59
2023/06/02 13:42:56;;;;;;;3.60;3.40;;;;;;;;;;5075541;28;20283;-59
2023/06/02 13:45:23;;;;;;;3.60;3.30;;;;;;;;;;5076247;28;20211;-59
2023/06/02 13:47:49;;;;;;;3.63;2.75;;;;;;;;;;5079146;28;20375;-59
2023/06/02 13:50:15;;;;;;;3.75;3.35;;;;;;;;;;5077618;28;20270;-60
2023/06/02 13:52:43;;;;;;;3.97;3.60;;;;;;;;;;5064350;28;20214;-59
2023/06/02 13:55:09;;;;;;;3.70;3.45;;;;;;;;;;5073828;28;20215;-60
2023/06/02 13:57:36;;;;;;;5.00;3.70;;;;;;;;;;5077600;28;20235;-60
2023/06/02 14:00:02;;;;;;;4.60;3.50;;;;;;;;;;5082067;28;20241;-60
2023/06/02 14:02:29;;;;;;;5.03;3.10;;;;;;;;;;5073339;28;20237;-60
2023/06/02 14:04:55;;;;;;;3.63;3.33;;;;;;;;;;5079520;28;20511;-61
2023/06/02 14:07:22;;;;;;;3.80;2.92;;;;;;;;;;5079932;28;20214;-61
2023/06/02 14:09:49;;;;;;;3.40;3.20;;;;;;;;;;5078458;28;20504;-60
2023/06/02 14:12:16;;;;;;;4.13;3.13;;;;;;;;;;5078111;28;20446;-70
2023/06/02 14:14:42;;;;;;;3.70;3.15;;;;;;;;;;5078175;28;20527;-70
2023/06/02 14:17:08;;;;;;;4.35;3.00;;;;;;;;;;5078183;28;20468;-70
2023/06/02 14:19:34;;;;;;;4.20;3.13;;;;;;;;;;5077996;28;20223;-70
2023/06/02 14:22:01;;;;;;;3.38;3.08;;;;;;;;;;5073632;28;20208;-69
2023/06/02 14:24:27;;;;;;;3.65;3.22;;;;;;;;;;5077800;28;20260;-70
2023/06/02 14:26:56;;;;;;;7.85;3.30;;;;;;;;;;5077865;28;20208;-69
2023/06/02 14:29:22;;;;;;;2.85;2.58;;;;;;;;;;5070746;28;20215;-69
2023/06/02 14:31:48;;;;;;;3.13;2.95;;;;;;;;;;5079576;28;20208;-69
2023/06/02 14:34:15;;;;;;;3.13;2.80;;;;;;;;;;5082947;28;20202;-69
2023/06/02 14:36:41;;;;;;;3.35;3.00;;;;;;;;;;5081980;28;20196;-69
2023/06/02 14:39:08;;;;;;;5.78;3.08;;;;;;;;;;5081608;28;20215;-69
2023/06/02 14:41:34;;;;;;;4.00;3.50;;;;;;;;;;5081724;28;20203;-67
2023/06/02 14:44:02;;;;;;;4.72;3.13;;;;;;;;;;5082077;28;20196;-69